Anton, Texas
Current Conditions -  °F | °C
As of 3:53 AM on Friday 28 Nov 2014 (Local Time) from KLBB Reporting Station
Few Clouds Few Clouds  
Wind Chill:   Ceiling: Unl
Heat Index:   Visibility: 10mi
Dew Point: -1°   Wind: 15mph
Humidity: 60%   Direction: 230°SW
Pressure: 30.17"   Gusts: NA
Location:  33.81°N, 102.16°W
Report Text: KLBB 280953Z 23013KT 10SM FEW300 06/M01 A3017 RMK AO2 SLP200 T00611011
Loading
Personal Weather Stations






























Interactive Weather Map New forecast layout! Learn more

10-Day Weather Forecast

Advertisements
Track Severe Weather on mobile